Aeroporto :
LOGIN :

Iscrizione | Disclaimer

   EN    FR    IT 

 










Sommario :    VFR   VFR Marginale   IFR   IFR Intensivo   IFR Molto Intensivo
Visibilità : 
Base nubi : 
>= 8 km
>= 3000ft
5 / 8 km
1000 / 3000 ft
1500m / 5 km
500 / 1000 ft
800 / 1500m
200 / 500 ft
< 800m
< 200 ft
Simboli :   Temporali  Nebbia  Neve Forte  Precipitazioni Forti  Vento > 20 kt
SIGMETs :   Varie  Temporali  Ghiacco  Turbolenza  Onda orograficha  Ceneri Vulcaniche






- Altitudine del aeroporto : 274 ft
- Codice IATA : PUY


LDPL - Pula

ULTIMO METAR :
  • 300300Z 06008KT CAVOK 14/07 Q1017

METARs OBSOLETI :
  • 300230Z 06008KT CAVOK 15/08 Q1017
  • 300200Z 05007KT CAVOK 15/08 Q1017
  • 300130Z 08013KT CAVOK 16/08 Q1017
  • 300100Z 07016KT CAVOK 16/08 Q1017
  • 300030Z 07012KT CAVOK 16/09 Q1018

TAF TAF LDPL
Valido dal 30 a 00 ore il 31 a 00 ore UTC


292325Z 3000/3100 07008KT CAVOK TX22/3012Z TN13/3001Z
TEMPO 3000/3009 07015KT
BECMG 3014/3016 30008KT
PROB30
TEMPO 3014/3016 FEW050TCU
BECMG 3020/3022 07008KT



MetMap, La meteo Aeronautica in un colpo d'occhio ! - Copyright ORBIFLY Dicembre 2007 - Disclaimer

ORBIFLY MET'MAP TEAM :

Programmazione e sviluppo : Alexandra Zaïnal
Concezione : Baudouin d'Aumeries
Aiuto per la programmazione : Marc-Olivier Méhu
Supporto tecnico e logistico : Manuel Goepfert
Aiuto per la traduzione : Arnaldo La Scala

Contatto : metmap@orbifly.com




FONTI E CREDITI :

   NOAA